sensor_id;sensor_type;location;lat;lon;timestamp;temperature;humidity
2657;DHT22;1338;48.176;11.792;2024-03-17T00:00:45;6.50;1.00
2657;DHT22;1338;48.176;11.792;2024-03-17T00:03:13;6.60;1.00
2657;DHT22;1338;48.176;11.792;2024-03-17T00:05:39;6.70;1.00
2657;DHT22;1338;48.176;11.792;2024-03-17T00:08:08;6.60;1.00
2657;DHT22;1338;48.176;11.792;2024-03-17T00:10:34;6.60;1.00
2657;DHT22;1338;48.176;11.792;2024-03-17T00:13:02;6.60;1.00
2657;DHT22;1338;48.176;11.792;2024-03-17T00:15:28;6.60;1.00
2657;DHT22;1338;48.176;11.792;2024-03-17T00:17:55;6.50;1.00
2657;DHT22;1338;48.176;11.792;2024-03-17T00:20:21;6.50;1.00
2657;DHT22;1338;48.176;11.792;2024-03-17T00:22:50;6.50;1.00
2657;DHT22;1338;48.176;11.792;2024-03-17T00:25:18;6.50;1.00
2657;DHT22;1338;48.176;11.792;2024-03-17T00:27:45;6.60;1.00
2657;DHT22;1338;48.176;11.792;2024-03-17T00:30:14;6.50;1.00
2657;DHT22;1338;48.176;11.792;2024-03-17T00:32:42;6.60;1.00
2657;DHT22;1338;48.176;11.792;2024-03-17T00:35:10;6.60;1.00
2657;DHT22;1338;48.176;11.792;2024-03-17T00:37:39;6.60;1.00
2657;DHT22;1338;48.176;11.792;2024-03-17T00:40:07;6.60;1.00
2657;DHT22;1338;48.176;11.792;2024-03-17T00:42:35;6.50;1.00
2657;DHT22;1338;48.176;11.792;2024-03-17T00:45:02;6.60;1.00
2657;DHT22;1338;48.176;11.792;2024-03-17T00:47:31;6.50;1.00
2657;DHT22;1338;48.176;11.792;2024-03-17T00:49:58;6.50;1.00
2657;DHT22;1338;48.176;11.792;2024-03-17T00:52:25;6.40;1.00
2657;DHT22;1338;48.176;11.792;2024-03-17T00:54:51;6.40;1.00
2657;DHT22;1338;48.176;11.792;2024-03-17T00:57:20;6.30;1.00
2657;DHT22;1338;48.176;11.792;2024-03-17T00:59:47;6.20;1.00
2657;DHT22;1338;48.176;11.792;2024-03-17T01:02:15;6.20;1.00
2657;DHT22;1338;48.176;11.792;2024-03-17T01:04:42;6.10;11.90
2657;DHT22;1338;48.176;11.792;2024-03-17T01:07:09;6.10;16.90
2657;DHT22;1338;48.176;11.792;2024-03-17T01:09:36;6.10;1.00
2657;DHT22;1338;48.176;11.792;2024-03-17T01:12:03;6.20;1.00
2657;DHT22;1338;48.176;11.792;2024-03-17T01:14:30;6.20;1.00
2657;DHT22;1338;48.176;11.792;2024-03-17T01:16:59;6.20;1.00
2657;DHT22;1338;48.176;11.792;2024-03-17T01:19:25;6.20;1.00
2657;DHT22;1338;48.176;11.792;2024-03-17T01:21:53;6.10;1.00
2657;DHT22;1338;48.176;11.792;2024-03-17T01:24:19;6.10;1.00
2657;DHT22;1338;48.176;11.792;2024-03-17T01:26:47;6.10;91.30
2657;DHT22;1338;48.176;11.792;2024-03-17T01:29:13;6.10;99.90
2657;DHT22;1338;48.176;11.792;2024-03-17T01:31:40;6.00;99.90
2657;DHT22;1338;48.176;11.792;2024-03-17T01:34:08;6.00;99.90
2657;DHT22;1338;48.176;11.792;2024-03-17T01:36:35;5.90;99.90
2657;DHT22;1338;48.176;11.792;2024-03-17T01:39:01;5.80;99.90
2657;DHT22;1338;48.176;11.792;2024-03-17T01:41:29;6.00;99.90
2657;DHT22;1338;48.176;11.792;2024-03-17T01:43:55;6.00;99.90
2657;DHT22;1338;48.176;11.792;2024-03-17T01:46:24;6.00;99.90
2657;DHT22;1338;48.176;11.792;2024-03-17T01:48:51;5.90;99.90
2657;DHT22;1338;48.176;11.792;2024-03-17T01:51:19;5.80;99.90
2657;DHT22;1338;48.176;11.792;2024-03-17T01:53:46;5.70;99.90
2657;DHT22;1338;48.176;11.792;2024-03-17T01:56:16;5.60;99.90
2657;DHT22;1338;48.176;11.792;2024-03-17T01:58:44;5.50;99.90
2657;DHT22;1338;48.176;11.792;2024-03-17T02:01:12;5.50;99.90
2657;DHT22;1338;48.176;11.792;2024-03-17T02:03:40;5.40;99.90
2657;DHT22;1338;48.176;11.792;2024-03-17T02:06:07;5.30;99.90
2657;DHT22;1338;48.176;11.792;2024-03-17T02:08:49;5.30;1.00
2657;DHT22;1338;48.176;11.792;2024-03-17T02:11:25;5.30;1.00
2657;DHT22;1338;48.176;11.792;2024-03-17T02:13:52;5.30;1.00
2657;DHT22;1338;48.176;11.792;2024-03-17T02:16:20;5.20;1.00
2657;DHT22;1338;48.176;11.792;2024-03-17T02:18:46;5.20;1.00
2657;DHT22;1338;48.176;11.792;2024-03-17T02:21:13;5.30;1.00
2657;DHT22;1338;48.176;11.792;2024-03-17T02:23:42;5.20;1.00
2657;DHT22;1338;48.176;11.792;2024-03-17T02:26:09;5.30;1.00
2657;DHT22;1338;48.176;11.792;2024-03-17T02:28:39;5.30;1.00
2657;DHT22;1338;48.176;11.792;2024-03-17T02:31:08;5.30;1.00
2657;DHT22;1338;48.176;11.792;2024-03-17T02:33:36;5.30;1.00
2657;DHT22;1338;48.176;11.792;2024-03-17T02:36:05;5.30;1.00
2657;DHT22;1338;48.176;11.792;2024-03-17T02:38:33;5.40;1.00
2657;DHT22;1338;48.176;11.792;2024-03-17T02:41:20;5.40;1.00
2657;DHT22;1338;48.176;11.792;2024-03-17T02:43:47;5.40;1.00
2657;DHT22;1338;48.176;11.792;2024-03-17T02:46:15;5.40;1.00
2657;DHT22;1338;48.176;11.792;2024-03-17T02:48:46;5.40;1.00
2657;DHT22;1338;48.176;11.792;2024-03-17T02:51:14;5.50;1.00
2657;DHT22;1338;48.176;11.792;2024-03-17T02:53:41;5.50;1.00
2657;DHT22;1338;48.176;11.792;2024-03-17T02:56:08;5.60;1.00
2657;DHT22;1338;48.176;11.792;2024-03-17T02:58:38;5.50;1.00
2657;DHT22;1338;48.176;11.792;2024-03-17T03:01:08;5.50;1.00
2657;DHT22;1338;48.176;11.792;2024-03-17T03:03:36;5.60;1.00
2657;DHT22;1338;48.176;11.792;2024-03-17T03:06:04;5.50;1.00
2657;DHT22;1338;48.176;11.792;2024-03-17T03:08:35;5.50;1.00
2657;DHT22;1338;48.176;11.792;2024-03-17T03:11:03;5.50;1.00
2657;DHT22;1338;48.176;11.792;2024-03-17T03:13:31;5.50;1.00
2657;DHT22;1338;48.176;11.792;2024-03-17T03:16:00;5.50;1.00
2657;DHT22;1338;48.176;11.792;2024-03-17T03:18:27;5.50;1.00
2657;DHT22;1338;48.176;11.792;2024-03-17T03:20:54;5.50;1.00
2657;DHT22;1338;48.176;11.792;2024-03-17T03:23:21;5.40;1.00
2657;DHT22;1338;48.176;11.792;2024-03-17T03:25:54;5.40;1.00
2657;DHT22;1338;48.176;11.792;2024-03-17T03:28:22;5.40;1.00
2657;DHT22;1338;48.176;11.792;2024-03-17T03:30:49;5.30;1.00
2657;DHT22;1338;48.176;11.792;2024-03-17T03:33:18;5.30;1.00
2657;DHT22;1338;48.176;11.792;2024-03-17T03:35:45;5.30;1.00
2657;DHT22;1338;48.176;11.792;2024-03-17T03:38:13;5.30;1.00
2657;DHT22;1338;48.176;11.792;2024-03-17T03:40:40;5.30;1.00
2657;DHT22;1338;48.176;11.792;2024-03-17T03:43:08;5.30;1.00
2657;DHT22;1338;48.176;11.792;2024-03-17T03:45:35;5.30;1.00
2657;DHT22;1338;48.176;11.792;2024-03-17T03:48:03;5.30;1.00
2657;DHT22;1338;48.176;11.792;2024-03-17T03:50:32;5.40;1.00
2657;DHT22;1338;48.176;11.792;2024-03-17T03:52:59;5.40;1.00
2657;DHT22;1338;48.176;11.792;2024-03-17T03:55:26;5.40;1.00
2657;DHT22;1338;48.176;11.792;2024-03-17T03:57:54;5.40;1.00
2657;DHT22;1338;48.176;11.792;2024-03-17T04:00:21;5.30;1.00
2657;DHT22;1338;48.176;11.792;2024-03-17T04:02:51;5.40;1.00
2657;DHT22;1338;48.176;11.792;2024-03-17T04:05:18;5.40;1.00
2657;DHT22;1338;48.176;11.792;2024-03-17T04:07:47;5.40;1.00
2657;DHT22;1338;48.176;11.792;2024-03-17T04:10:15;5.40;1.00
2657;DHT22;1338;48.176;11.792;2024-03-17T04:12:44;5.50;1.00
2657;DHT22;1338;48.176;11.792;2024-03-17T04:15:11;5.50;1.00
2657;DHT22;1338;48.176;11.792;2024-03-17T04:17:40;5.50;1.00
2657;DHT22;1338;48.176;11.792;2024-03-17T04:20:08;5.60;1.00
2657;DHT22;1338;48.176;11.792;2024-03-17T04:22:36;5.60;1.00
2657;DHT22;1338;48.176;11.792;2024-03-17T04:25:05;5.60;1.00
2657;DHT22;1338;48.176;11.792;2024-03-17T04:27:32;5.50;1.00
2657;DHT22;1338;48.176;11.792;2024-03-17T04:30:00;5.40;1.00
2657;DHT22;1338;48.176;11.792;2024-03-17T04:32:28;5.30;1.00
2657;DHT22;1338;48.176;11.792;2024-03-17T04:34:57;5.40;1.00
2657;DHT22;1338;48.176;11.792;2024-03-17T04:37:25;5.50;1.00
2657;DHT22;1338;48.176;11.792;2024-03-17T04:39:52;5.30;1.00
2657;DHT22;1338;48.176;11.792;2024-03-17T04:42:24;5.30;1.00
2657;DHT22;1338;48.176;11.792;2024-03-17T04:44:51;5.40;1.00
2657;DHT22;1338;48.176;11.792;2024-03-17T04:47:19;5.30;1.00
2657;DHT22;1338;48.176;11.792;2024-03-17T04:49:46;5.30;1.00
2657;DHT22;1338;48.176;11.792;2024-03-17T04:52:16;5.10;1.00
2657;DHT22;1338;48.176;11.792;2024-03-17T04:54:43;5.10;1.00
2657;DHT22;1338;48.176;11.792;2024-03-17T04:57:11;5.10;1.00
2657;DHT22;1338;48.176;11.792;2024-03-17T04:59:39;5.10;3.00
2657;DHT22;1338;48.176;11.792;2024-03-17T05:02:07;5.10;51.90
2657;DHT22;1338;48.176;11.792;2024-03-17T05:04:34;5.00;12.90
2657;DHT22;1338;48.176;11.792;2024-03-17T05:07:01;5.00;12.90
2657;DHT22;1338;48.176;11.792;2024-03-17T05:09:28;5.10;70.00
2657;DHT22;1338;48.176;11.792;2024-03-17T05:11:55;5.10;76.20
2657;DHT22;1338;48.176;11.792;2024-03-17T05:14:22;5.00;69.20
2657;DHT22;1338;48.176;11.792;2024-03-17T05:16:52;5.00;74.40
2657;DHT22;1338;48.176;11.792;2024-03-17T05:19:19;5.00;81.60
2657;DHT22;1338;48.176;11.792;2024-03-17T05:21:47;5.00;90.30
2657;DHT22;1338;48.176;11.792;2024-03-17T05:24:14;5.00;70.40
2657;DHT22;1338;48.176;11.792;2024-03-17T05:26:41;5.00;63.30
2657;DHT22;1338;48.176;11.792;2024-03-17T05:29:09;5.00;75.00
2657;DHT22;1338;48.176;11.792;2024-03-17T05:31:36;5.10;99.90
2657;DHT22;1338;48.176;11.792;2024-03-17T05:34:06;5.00;96.20
2657;DHT22;1338;48.176;11.792;2024-03-17T05:36:35;5.00;96.00
2657;DHT22;1338;48.176;11.792;2024-03-17T05:39:02;5.00;98.30
2657;DHT22;1338;48.176;11.792;2024-03-17T05:41:32;5.10;96.30
2657;DHT22;1338;48.176;11.792;2024-03-17T05:44:00;5.10;99.90
2657;DHT22;1338;48.176;11.792;2024-03-17T05:46:29;5.10;99.90
2657;DHT22;1338;48.176;11.792;2024-03-17T05:48:57;5.10;99.90
2657;DHT22;1338;48.176;11.792;2024-03-17T05:51:25;5.10;99.90
2657;DHT22;1338;48.176;11.792;2024-03-17T05:53:53;5.10;99.90
2657;DHT22;1338;48.176;11.792;2024-03-17T05:56:22;5.20;99.90
2657;DHT22;1338;48.176;11.792;2024-03-17T05:58:50;5.10;99.90
2657;DHT22;1338;48.176;11.792;2024-03-17T06:01:17;5.00;99.90
2657;DHT22;1338;48.176;11.792;2024-03-17T06:03:45;5.00;99.90
2657;DHT22;1338;48.176;11.792;2024-03-17T06:06:13;5.00;99.90
2657;DHT22;1338;48.176;11.792;2024-03-17T06:08:41;5.00;99.90
2657;DHT22;1338;48.176;11.792;2024-03-17T06:11:09;5.00;99.90
2657;DHT22;1338;48.176;11.792;2024-03-17T06:13:37;5.10;99.90
2657;DHT22;1338;48.176;11.792;2024-03-17T06:16:05;5.20;99.90
2657;DHT22;1338;48.176;11.792;2024-03-17T06:18:32;5.20;97.70
2657;DHT22;1338;48.176;11.792;2024-03-17T06:20:59;5.30;19.50
2657;DHT22;1338;48.176;11.792;2024-03-17T06:23:27;5.40;1.00
2657;DHT22;1338;48.176;11.792;2024-03-17T06:25:55;5.40;1.00
2657;DHT22;1338;48.176;11.792;2024-03-17T06:28:23;5.50;1.00
2657;DHT22;1338;48.176;11.792;2024-03-17T06:30:55;5.50;1.00
2657;DHT22;1338;48.176;11.792;2024-03-17T06:33:25;5.60;1.00
2657;DHT22;1338;48.176;11.792;2024-03-17T06:35:54;5.80;1.00
2657;DHT22;1338;48.176;11.792;2024-03-17T06:38:21;5.90;1.00
2657;DHT22;1338;48.176;11.792;2024-03-17T06:40:49;6.00;99.90
2657;DHT22;1338;48.176;11.792;2024-03-17T06:43:18;6.00;99.90
2657;DHT22;1338;48.176;11.792;2024-03-17T06:45:54;6.10;99.90
2657;DHT22;1338;48.176;11.792;2024-03-17T06:48:22;6.20;99.90
2657;DHT22;1338;48.176;11.792;2024-03-17T06:50:50;6.30;99.90
2657;DHT22;1338;48.176;11.792;2024-03-17T06:53:18;6.40;86.50
2657;DHT22;1338;48.176;11.792;2024-03-17T06:55:52;6.50;1.00
2657;DHT22;1338;48.176;11.792;2024-03-17T06:58:21;6.60;1.00
2657;DHT22;1338;48.176;11.792;2024-03-17T07:00:56;6.80;1.00
2657;DHT22;1338;48.176;11.792;2024-03-17T07:03:24;7.00;1.00
2657;DHT22;1338;48.176;11.792;2024-03-17T07:05:54;7.00;1.00
2657;DHT22;1338;48.176;11.792;2024-03-17T07:08:21;7.10;1.00
2657;DHT22;1338;48.176;11.792;2024-03-17T07:10:56;7.10;1.00
2657;DHT22;1338;48.176;11.792;2024-03-17T07:13:25;7.20;99.90
2657;DHT22;1338;48.176;11.792;2024-03-17T07:15:52;7.50;99.90
2657;DHT22;1338;48.176;11.792;2024-03-17T07:18:20;7.50;60.30
2657;DHT22;1338;48.176;11.792;2024-03-17T07:20:47;7.70;1.00
2657;DHT22;1338;48.176;11.792;2024-03-17T07:23:15;8.20;99.90
2657;DHT22;1338;48.176;11.792;2024-03-17T07:25:42;8.30;99.90
2657;DHT22;1338;48.176;11.792;2024-03-17T07:28:09;8.30;1.00
2657;DHT22;1338;48.176;11.792;2024-03-17T07:30:46;8.30;1.00
2657;DHT22;1338;48.176;11.792;2024-03-17T07:33:16;8.70;1.00
2657;DHT22;1338;48.176;11.792;2024-03-17T07:35:50;8.70;1.00
2657;DHT22;1338;48.176;11.792;2024-03-17T07:38:18;8.90;1.00
2657;DHT22;1338;48.176;11.792;2024-03-17T07:40:55;8.90;1.00
2657;DHT22;1338;48.176;11.792;2024-03-17T07:43:23;8.90;1.00
2657;DHT22;1338;48.176;11.792;2024-03-17T07:46:02;9.00;1.00
2657;DHT22;1338;48.176;11.792;2024-03-17T07:48:30;9.10;1.00
2657;DHT22;1338;48.176;11.792;2024-03-17T07:50:59;9.10;1.00
2657;DHT22;1338;48.176;11.792;2024-03-17T07:53:27;9.30;1.00
2657;DHT22;1338;48.176;11.792;2024-03-17T07:55:58;9.10;99.90
2657;DHT22;1338;48.176;11.792;2024-03-17T07:58:26;9.30;1.00
2657;DHT22;1338;48.176;11.792;2024-03-17T08:00:58;9.20;1.00
2657;DHT22;1338;48.176;11.792;2024-03-17T08:03:26;9.30;1.00
2657;DHT22;1338;48.176;11.792;2024-03-17T08:05:54;9.30;99.90
2657;DHT22;1338;48.176;11.792;2024-03-17T08:08:22;9.50;99.90
2657;DHT22;1338;48.176;11.792;2024-03-17T08:10:49;9.60;99.90
2657;DHT22;1338;48.176;11.792;2024-03-17T08:13:17;9.70;99.90
2657;DHT22;1338;48.176;11.792;2024-03-17T08:15:45;10.00;99.90
2657;DHT22;1338;48.176;11.792;2024-03-17T08:18:14;10.10;99.90
2657;DHT22;1338;48.176;11.792;2024-03-17T08:20:42;10.00;99.90
2657;DHT22;1338;48.176;11.792;2024-03-17T08:23:13;10.10;99.90
2657;DHT22;1338;48.176;11.792;2024-03-17T08:25:41;10.10;99.90
2657;DHT22;1338;48.176;11.792;2024-03-17T08:28:08;10.30;99.90
2657;DHT22;1338;48.176;11.792;2024-03-17T08:30:35;10.60;99.90
2657;DHT22;1338;48.176;11.792;2024-03-17T08:33:02;10.50;98.40
2657;DHT22;1338;48.176;11.792;2024-03-17T08:35:31;10.70;71.30
2657;DHT22;1338;48.176;11.792;2024-03-17T08:37:59;10.60;7.90
2657;DHT22;1338;48.176;11.792;2024-03-17T08:40:27;10.40;1.00
2657;DHT22;1338;48.176;11.792;2024-03-17T08:42:54;10.70;1.00
2657;DHT22;1338;48.176;11.792;2024-03-17T08:45:21;10.80;1.00
2657;DHT22;1338;48.176;11.792;2024-03-17T08:47:51;10.60;1.00
2657;DHT22;1338;48.176;11.792;2024-03-17T08:50:18;10.90;1.00
2657;DHT22;1338;48.176;11.792;2024-03-17T08:52:47;11.00;1.00
2657;DHT22;1338;48.176;11.792;2024-03-17T08:55:17;11.10;1.00
2657;DHT22;1338;48.176;11.792;2024-03-17T08:57:44;11.30;1.00
2657;DHT22;1338;48.176;11.792;2024-03-17T09:00:12;10.90;1.00
2657;DHT22;1338;48.176;11.792;2024-03-17T09:02:41;11.40;1.00
2657;DHT22;1338;48.176;11.792;2024-03-17T09:05:08;11.30;1.00
2657;DHT22;1338;48.176;11.792;2024-03-17T09:07:38;12.10;1.00
2657;DHT22;1338;48.176;11.792;2024-03-17T09:10:08;12.70;1.00
2657;DHT22;1338;48.176;11.792;2024-03-17T09:12:35;12.60;1.00
2657;DHT22;1338;48.176;11.792;2024-03-17T09:15:04;12.60;1.00
2657;DHT22;1338;48.176;11.792;2024-03-17T09:17:32;12.80;1.00
2657;DHT22;1338;48.176;11.792;2024-03-17T09:19:59;12.40;1.00
2657;DHT22;1338;48.176;11.792;2024-03-17T09:22:27;12.10;1.00
2657;DHT22;1338;48.176;11.792;2024-03-17T09:24:58;12.80;1.00
2657;DHT22;1338;48.176;11.792;2024-03-17T09:27:27;12.90;1.00
2657;DHT22;1338;48.176;11.792;2024-03-17T09:29:55;12.60;1.00
2657;DHT22;1338;48.176;11.792;2024-03-17T09:32:24;13.40;1.00
2657;DHT22;1338;48.176;11.792;2024-03-17T09:34:52;12.60;1.00
2657;DHT22;1338;48.176;11.792;2024-03-17T09:37:19;12.30;1.00
2657;DHT22;1338;48.176;11.792;2024-03-17T09:39:47;12.20;1.00
2657;DHT22;1338;48.176;11.792;2024-03-17T09:42:17;12.20;1.00
2657;DHT22;1338;48.176;11.792;2024-03-17T09:44:48;12.40;1.00
2657;DHT22;1338;48.176;11.792;2024-03-17T09:47:19;12.80;1.00
2657;DHT22;1338;48.176;11.792;2024-03-17T09:49:47;12.60;1.00
2657;DHT22;1338;48.176;11.792;2024-03-17T09:52:20;13.20;1.00
2657;DHT22;1338;48.176;11.792;2024-03-17T09:54:53;13.00;1.00
2657;DHT22;1338;48.176;11.792;2024-03-17T09:57:22;13.00;1.00
2657;DHT22;1338;48.176;11.792;2024-03-17T09:59:52;13.40;1.00
2657;DHT22;1338;48.176;11.792;2024-03-17T10:02:21;12.90;1.00
2657;DHT22;1338;48.176;11.792;2024-03-17T10:04:49;12.90;1.00
2657;DHT22;1338;48.176;11.792;2024-03-17T10:07:16;12.30;1.00
2657;DHT22;1338;48.176;11.792;2024-03-17T10:09:44;12.30;1.00
2657;DHT22;1338;48.176;11.792;2024-03-17T10:12:28;12.20;1.00
2657;DHT22;1338;48.176;11.792;2024-03-17T10:15:01;12.50;1.00
2657;DHT22;1338;48.176;11.792;2024-03-17T10:17:32;12.60;1.00
2657;DHT22;1338;48.176;11.792;2024-03-17T10:20:17;12.60;1.00
2657;DHT22;1338;48.176;11.792;2024-03-17T10:22:58;12.80;1.00
2657;DHT22;1338;48.176;11.792;2024-03-17T10:25:26;12.50;1.00
2657;DHT22;1338;48.176;11.792;2024-03-17T10:27:53;12.80;1.00
2657;DHT22;1338;48.176;11.792;2024-03-17T10:30:23;13.00;1.00
2657;DHT22;1338;48.176;11.792;2024-03-17T10:32:53;13.00;1.00
2657;DHT22;1338;48.176;11.792;2024-03-17T10:35:28;12.30;1.00
2657;DHT22;1338;48.176;11.792;2024-03-17T10:37:57;12.50;1.00
2657;DHT22;1338;48.176;11.792;2024-03-17T10:40:25;12.40;1.00
2657;DHT22;1338;48.176;11.792;2024-03-17T10:42:53;12.50;1.00
2657;DHT22;1338;48.176;11.792;2024-03-17T10:45:22;12.40;1.00
2657;DHT22;1338;48.176;11.792;2024-03-17T10:47:51;12.50;1.00
2657;DHT22;1338;48.176;11.792;2024-03-17T10:50:19;12.60;1.00
2657;DHT22;1338;48.176;11.792;2024-03-17T10:52:49;12.60;1.00
2657;DHT22;1338;48.176;11.792;2024-03-17T10:55:22;12.60;1.00
2657;DHT22;1338;48.176;11.792;2024-03-17T10:57:50;12.10;1.00
2657;DHT22;1338;48.176;11.792;2024-03-17T11:00:19;12.30;1.00
2657;DHT22;1338;48.176;11.792;2024-03-17T11:02:51;12.40;1.00
2657;DHT22;1338;48.176;11.792;2024-03-17T11:05:21;12.50;1.00
2657;DHT22;1338;48.176;11.792;2024-03-17T11:07:52;12.70;1.00
2657;DHT22;1338;48.176;11.792;2024-03-17T11:10:22;12.80;1.00
2657;DHT22;1338;48.176;11.792;2024-03-17T11:12:51;13.20;1.00
2657;DHT22;1338;48.176;11.792;2024-03-17T11:15:38;13.00;1.00
2657;DHT22;1338;48.176;11.792;2024-03-17T11:21:24;13.40;1.00
2657;DHT22;1338;48.176;11.792;2024-03-17T11:23:56;13.40;1.00
2657;DHT22;1338;48.176;11.792;2024-03-17T11:26:27;13.70;1.00
2657;DHT22;1338;48.176;11.792;2024-03-17T11:28:54;14.10;1.00
2657;DHT22;1338;48.176;11.792;2024-03-17T11:31:41;14.50;1.00
2657;DHT22;1338;48.176;11.792;2024-03-17T11:34:31;14.70;1.00
2657;DHT22;1338;48.176;11.792;2024-03-17T11:37:01;14.50;1.00
2657;DHT22;1338;48.176;11.792;2024-03-17T11:39:49;14.10;1.00
2657;DHT22;1338;48.176;11.792;2024-03-17T11:42:17;13.20;1.00
2657;DHT22;1338;48.176;11.792;2024-03-17T11:44:55;13.60;1.00
2657;DHT22;1338;48.176;11.792;2024-03-17T11:47:33;13.80;1.00
2657;DHT22;1338;48.176;11.792;2024-03-17T11:50:03;14.20;1.00
2657;DHT22;1338;48.176;11.792;2024-03-17T11:52:37;13.70;1.00
2657;DHT22;1338;48.176;11.792;2024-03-17T11:55:05;13.20;1.00
2657;DHT22;1338;48.176;11.792;2024-03-17T11:57:32;12.90;1.00
2657;DHT22;1338;48.176;11.792;2024-03-17T12:00:00;12.90;1.00
2657;DHT22;1338;48.176;11.792;2024-03-17T12:02:31;13.20;1.00
2657;DHT22;1338;48.176;11.792;2024-03-17T12:05:00;13.20;1.00
2657;DHT22;1338;48.176;11.792;2024-03-17T12:07:27;13.40;1.00
2657;DHT22;1338;48.176;11.792;2024-03-17T12:09:57;13.60;1.00
2657;DHT22;1338;48.176;11.792;2024-03-17T12:12:25;13.60;1.00
2657;DHT22;1338;48.176;11.792;2024-03-17T12:15:01;13.70;1.00
2657;DHT22;1338;48.176;11.792;2024-03-17T12:17:29;13.90;1.00
2657;DHT22;1338;48.176;11.792;2024-03-17T12:19:56;13.40;1.00
2657;DHT22;1338;48.176;11.792;2024-03-17T12:22:23;13.10;1.00
2657;DHT22;1338;48.176;11.792;2024-03-17T12:24:53;13.30;1.00
2657;DHT22;1338;48.176;11.792;2024-03-17T12:27:22;13.60;1.00
2657;DHT22;1338;48.176;11.792;2024-03-17T12:29:50;14.20;1.00
2657;DHT22;1338;48.176;11.792;2024-03-17T12:32:18;14.20;1.00
2657;DHT22;1338;48.176;11.792;2024-03-17T12:34:47;14.20;1.00
2657;DHT22;1338;48.176;11.792;2024-03-17T12:37:17;13.80;1.00
2657;DHT22;1338;48.176;11.792;2024-03-17T12:39:45;14.10;1.00
2657;DHT22;1338;48.176;11.792;2024-03-17T12:42:13;15.00;1.00
2657;DHT22;1338;48.176;11.792;2024-03-17T12:44:49;15.70;1.00
2657;DHT22;1338;48.176;11.792;2024-03-17T12:47:17;15.50;1.00
2657;DHT22;1338;48.176;11.792;2024-03-17T12:49:46;14.70;99.90
2657;DHT22;1338;48.176;11.792;2024-03-17T12:52:20;14.80;99.90
2657;DHT22;1338;48.176;11.792;2024-03-17T12:54:56;14.50;99.90
2657;DHT22;1338;48.176;11.792;2024-03-17T12:57:46;14.70;99.90
2657;DHT22;1338;48.176;11.792;2024-03-17T13:00:33;14.50;99.90
2657;DHT22;1338;48.176;11.792;2024-03-17T13:03:02;14.40;99.90
2657;DHT22;1338;48.176;11.792;2024-03-17T13:05:29;14.30;99.90
2657;DHT22;1338;48.176;11.792;2024-03-17T13:07:58;14.50;99.90
2657;DHT22;1338;48.176;11.792;2024-03-17T13:10:26;14.50;99.90
2657;DHT22;1338;48.176;11.792;2024-03-17T13:13:01;14.50;99.90
2657;DHT22;1338;48.176;11.792;2024-03-17T13:15:29;14.40;99.90
2657;DHT22;1338;48.176;11.792;2024-03-17T13:17:59;14.40;99.90
2657;DHT22;1338;48.176;11.792;2024-03-17T13:20:27;14.20;99.90
2657;DHT22;1338;48.176;11.792;2024-03-17T13:22:55;13.90;99.90
2657;DHT22;1338;48.176;11.792;2024-03-17T13:25:24;13.90;99.90
2657;DHT22;1338;48.176;11.792;2024-03-17T13:27:53;14.10;99.90
2657;DHT22;1338;48.176;11.792;2024-03-17T13:30:22;14.50;99.90
2657;DHT22;1338;48.176;11.792;2024-03-17T13:32:50;14.50;99.90
2657;DHT22;1338;48.176;11.792;2024-03-17T13:35:24;14.40;99.90
2657;DHT22;1338;48.176;11.792;2024-03-17T13:37:52;15.00;99.90
2657;DHT22;1338;48.176;11.792;2024-03-17T13:40:21;15.10;99.90
2657;DHT22;1338;48.176;11.792;2024-03-17T13:42:50;14.80;99.90
2657;DHT22;1338;48.176;11.792;2024-03-17T13:45:18;15.30;99.90
2657;DHT22;1338;48.176;11.792;2024-03-17T13:47:48;15.20;99.90
2657;DHT22;1338;48.176;11.792;2024-03-17T13:50:16;14.60;99.90
2657;DHT22;1338;48.176;11.792;2024-03-17T13:52:45;14.90;99.90
2657;DHT22;1338;48.176;11.792;2024-03-17T13:55:14;14.40;99.90
2657;DHT22;1338;48.176;11.792;2024-03-17T13:57:43;14.60;99.90
2657;DHT22;1338;48.176;11.792;2024-03-17T14:00:11;14.50;99.90
2657;DHT22;1338;48.176;11.792;2024-03-17T14:02:42;14.80;99.90
2657;DHT22;1338;48.176;11.792;2024-03-17T14:05:12;14.80;99.90
2657;DHT22;1338;48.176;11.792;2024-03-17T14:07:39;14.70;99.90
2657;DHT22;1338;48.176;11.792;2024-03-17T14:10:10;14.90;99.90
2657;DHT22;1338;48.176;11.792;2024-03-17T14:12:37;15.10;99.90
2657;DHT22;1338;48.176;11.792;2024-03-17T14:15:06;15.40;99.90
2657;DHT22;1338;48.176;11.792;2024-03-17T14:17:36;15.40;99.90
2657;DHT22;1338;48.176;11.792;2024-03-17T14:20:04;15.70;99.90
2657;DHT22;1338;48.176;11.792;2024-03-17T14:22:35;15.60;99.90
2657;DHT22;1338;48.176;11.792;2024-03-17T14:25:03;14.60;99.90
2657;DHT22;1338;48.176;11.792;2024-03-17T14:27:31;14.90;99.90
2657;DHT22;1338;48.176;11.792;2024-03-17T14:29:59;15.10;99.90
2657;DHT22;1338;48.176;11.792;2024-03-17T14:32:26;15.30;99.90
2657;DHT22;1338;48.176;11.792;2024-03-17T14:34:54;15.10;99.90
2657;DHT22;1338;48.176;11.792;2024-03-17T14:41:31;14.00;99.90
2657;DHT22;1338;48.176;11.792;2024-03-17T14:43:59;13.70;99.90
2657;DHT22;1338;48.176;11.792;2024-03-17T14:47:19;13.60;99.90
2657;DHT22;1338;48.176;11.792;2024-03-17T14:49:47;13.50;99.90
2657;DHT22;1338;48.176;11.792;2024-03-17T14:52:14;13.60;99.90
2657;DHT22;1338;48.176;11.792;2024-03-17T14:54:41;13.30;99.90
2657;DHT22;1338;48.176;11.792;2024-03-17T14:57:08;13.30;99.90
2657;DHT22;1338;48.176;11.792;2024-03-17T14:59:37;13.20;99.90
2657;DHT22;1338;48.176;11.792;2024-03-17T15:02:05;13.40;99.90
2657;DHT22;1338;48.176;11.792;2024-03-17T15:04:34;14.00;99.90
2657;DHT22;1338;48.176;11.792;2024-03-17T15:07:01;13.90;99.90
2657;DHT22;1338;48.176;11.792;2024-03-17T15:09:28;13.80;99.90
2657;DHT22;1338;48.176;11.792;2024-03-17T15:11:58;13.20;99.90
2657;DHT22;1338;48.176;11.792;2024-03-17T15:14:26;13.20;99.90
2657;DHT22;1338;48.176;11.792;2024-03-17T15:16:55;13.20;99.90
2657;DHT22;1338;48.176;11.792;2024-03-17T15:19:22;13.20;99.90
2657;DHT22;1338;48.176;11.792;2024-03-17T15:21:50;13.10;99.90
2657;DHT22;1338;48.176;11.792;2024-03-17T15:24:17;13.00;99.90
2657;DHT22;1338;48.176;11.792;2024-03-17T15:26:44;13.10;99.90
2657;DHT22;1338;48.176;11.792;2024-03-17T15:29:12;12.90;99.90
2657;DHT22;1338;48.176;11.792;2024-03-17T15:31:39;12.90;99.90
2657;DHT22;1338;48.176;11.792;2024-03-17T15:34:08;12.90;99.90
2657;DHT22;1338;48.176;11.792;2024-03-17T15:36:37;13.20;99.90
2657;DHT22;1338;48.176;11.792;2024-03-17T15:39:04;12.90;99.90
2657;DHT22;1338;48.176;11.792;2024-03-17T15:41:32;13.20;99.90
2657;DHT22;1338;48.176;11.792;2024-03-17T15:43:59;13.20;99.90
2657;DHT22;1338;48.176;11.792;2024-03-17T15:46:26;13.20;99.90
2657;DHT22;1338;48.176;11.792;2024-03-17T15:48:55;13.10;99.90
2657;DHT22;1338;48.176;11.792;2024-03-17T15:51:25;13.30;99.90
2657;DHT22;1338;48.176;11.792;2024-03-17T15:53:53;13.40;99.90
2657;DHT22;1338;48.176;11.792;2024-03-17T15:56:22;13.60;99.90
2657;DHT22;1338;48.176;11.792;2024-03-17T15:58:49;12.90;99.90
2657;DHT22;1338;48.176;11.792;2024-03-17T16:01:16;12.80;99.90
2657;DHT22;1338;48.176;11.792;2024-03-17T16:03:44;12.70;99.90
2657;DHT22;1338;48.176;11.792;2024-03-17T16:06:13;12.90;99.90
2657;DHT22;1338;48.176;11.792;2024-03-17T16:08:45;13.00;1.00
2657;DHT22;1338;48.176;11.792;2024-03-17T16:11:16;12.90;1.00
2657;DHT22;1338;48.176;11.792;2024-03-17T16:13:45;12.60;1.00
2657;DHT22;1338;48.176;11.792;2024-03-17T16:16:15;12.40;1.00
2657;DHT22;1338;48.176;11.792;2024-03-17T16:18:43;12.80;1.00
2657;DHT22;1338;48.176;11.792;2024-03-17T16:21:15;13.10;1.00
2657;DHT22;1338;48.176;11.792;2024-03-17T16:28:10;13.10;1.00